Maskinonge, Canada
Current Conditions -  °F | °C
As of 10:00 AM on Friday 31 Oct 2014 (Local Time) from CYRQ Reporting Station
Overcast Overcast  
Wind Chill: 37°   Ceiling: 4900
Heat Index: 37°   Visibility: 9mi
Dew Point: 30°   Wind: 2mph
Humidity: 75%   Direction: NA
Pressure: 30.08"   Gusts: NA
Location:  46.22°N, 73.02°W
Report Text: CYRQ 311400Z AUTO VRB02KT 9SM OVC049 03/M01 A3008 RMK SLP188
Loading
Personal Weather Stations






























Interactive Weather Map
Tropical Storm Tracking
New forecast layout! Learn more

10-Day Weather Forecast

Advertisements
Track Severe Weather on mobile